createdAt,value
2022-12-03T00:00:29.931Z,82.53
2022-12-03T00:05:56.739Z,82.57
2022-12-03T00:11:03.592Z,82.57
2022-12-03T00:16:10.738Z,82.63
2022-12-03T00:21:17.646Z,82.62
2022-12-03T00:26:24.584Z,82.59
2022-12-03T00:31:32.365Z,82.66
2022-12-03T00:36:39.625Z,82.69
2022-12-03T00:41:46.576Z,82.76
2022-12-03T00:46:53.454Z,82.77
2022-12-03T00:52:00.376Z,82.77
2022-12-03T00:57:07.562Z,82.86
2022-12-03T01:02:14.615Z,82.88
2022-12-03T01:07:21.614Z,83.00
2022-12-03T01:12:28.515Z,82.94
2022-12-03T01:17:35.351Z,83.09
2022-12-03T01:22:42.314Z,82.99
2022-12-03T01:27:49.140Z,83.03
2022-12-03T01:32:56.290Z,83.08
2022-12-03T01:38:03.183Z,83.05
2022-12-03T01:43:10.027Z,82.99
2022-12-03T01:48:17.612Z,82.93
2022-12-03T01:53:24.586Z,82.99
2022-12-03T01:58:32.651Z,82.97
2022-12-03T02:03:39.552Z,82.88
2022-12-03T02:08:48.058Z,82.89
2022-12-03T02:13:59.879Z,82.95
2022-12-03T02:19:09.322Z,82.88
2022-12-03T02:24:24.860Z,83.03
2022-12-03T02:29:32.842Z,83.02
2022-12-03T02:34:43.139Z,83.04
2022-12-03T02:39:52.430Z,83.01
2022-12-03T02:45:05.161Z,83.13
2022-12-03T02:50:16.280Z,82.96
2022-12-03T02:55:24.312Z,83.06
2022-12-03T03:00:31.993Z,83.11
2022-12-03T03:05:41.679Z,83.22
2022-12-03T03:10:50.403Z,83.30
2022-12-03T03:15:57.698Z,83.33
2022-12-03T03:21:05.591Z,83.49
2022-12-03T03:26:14.516Z,83.50
2022-12-03T03:31:24.840Z,83.52
2022-12-03T03:36:32.419Z,83.62
2022-12-03T03:41:40.078Z,83.71
2022-12-03T03:46:47.072Z,83.65
2022-12-03T03:51:54.104Z,83.70
2022-12-03T03:57:01.044Z,83.85
2022-12-03T04:02:08.390Z,83.81
2022-12-03T04:07:16.132Z,83.85
2022-12-03T04:12:45.719Z,83.96
2022-12-03T04:18:07.626Z,83.90
2022-12-03T04:23:14.651Z,83.97
2022-12-03T04:28:39.383Z,83.88
2022-12-03T04:34:03.896Z,83.88
2022-12-03T04:39:10.818Z,84.01
2022-12-03T04:44:35.747Z,84.07
2022-12-03T04:49:44.917Z,84.08
2022-12-03T04:54:52.071Z,84.03
2022-12-03T04:59:59.255Z,84.07
2022-12-03T05:05:07.233Z,84.16
2022-12-03T05:10:14.769Z,84.19
2022-12-03T05:15:21.768Z,84.18
2022-12-03T05:20:49.812Z,84.11
2022-12-03T05:26:00.079Z,84.11
2022-12-03T05:31:07.428Z,84.28
2022-12-03T05:36:14.557Z,84.18
2022-12-03T05:41:39.530Z,84.29
2022-12-03T05:46:46.480Z,84.19
2022-12-03T05:51:58.251Z,84.33
2022-12-03T05:57:05.666Z,84.21
2022-12-03T06:02:12.474Z,84.19
2022-12-03T06:07:19.721Z,84.28
2022-12-03T06:12:26.753Z,84.23
2022-12-03T06:17:33.759Z,84.36
2022-12-03T06:22:40.838Z,84.30
2022-12-03T06:27:47.837Z,84.32
2022-12-03T06:32:54.948Z,84.38
2022-12-03T06:38:01.988Z,84.38
2022-12-03T06:43:09.393Z,84.39
2022-12-03T06:48:16.407Z,84.50
2022-12-03T06:53:26.215Z,84.46
2022-12-03T06:58:33.261Z,84.47
2022-12-03T07:03:40.426Z,84.54
2022-12-03T07:08:47.392Z,84.43
2022-12-03T07:13:54.247Z,84.49
2022-12-03T07:19:01.341Z,84.45
2022-12-03T07:24:09.114Z,84.51
2022-12-03T07:29:16.051Z,84.52
2022-12-03T07:34:22.901Z,84.55
2022-12-03T07:39:29.901Z,84.57
2022-12-03T07:44:36.755Z,84.59
2022-12-03T07:49:43.574Z,84.60
2022-12-03T07:54:50.630Z,84.56
2022-12-03T07:59:58.017Z,84.59
2022-12-03T08:05:05.166Z,84.56
2022-12-03T08:10:13.662Z,84.49
2022-12-03T08:15:24.071Z,84.48
2022-12-03T08:20:34.410Z,84.51
2022-12-03T08:25:41.922Z,84.43
2022-12-03T08:30:58.299Z,84.39
2022-12-03T08:36:14.026Z,84.37
2022-12-03T08:41:36.692Z,84.43
2022-12-03T08:46:43.541Z,84.44
2022-12-03T08:51:55.622Z,84.42
2022-12-03T08:57:07.818Z,84.42
2022-12-03T09:02:19.759Z,84.21
2022-12-03T09:07:26.905Z,84.15
2022-12-03T09:12:34.327Z,84.14
2022-12-03T09:17:41.581Z,84.07
2022-12-03T09:22:48.401Z,84.06
2022-12-03T09:27:55.377Z,83.80
2022-12-03T09:33:02.537Z,83.85
2022-12-03T09:38:09.376Z,83.80
2022-12-03T09:43:16.984Z,83.79
2022-12-03T09:48:24.499Z,83.54
2022-12-03T09:53:40.888Z,83.56
2022-12-03T09:58:48.612Z,83.40
2022-12-03T10:03:55.590Z,83.37
2022-12-03T10:09:02.663Z,83.25
2022-12-03T10:14:13.827Z,83.07
2022-12-03T10:19:26.194Z,83.13
2022-12-03T10:24:34.710Z,83.07
2022-12-03T10:29:41.703Z,83.08
2022-12-03T10:34:48.641Z,83.18
2022-12-03T10:40:08.218Z,83.06
2022-12-03T10:45:19.911Z,83.07
2022-12-03T10:50:26.847Z,83.01
2022-12-03T10:55:38.780Z,83.01
2022-12-03T11:00:45.647Z,82.78
2022-12-03T11:05:54.870Z,82.81
2022-12-03T11:11:04.534Z,82.77
2022-12-03T11:16:37.657Z,82.63
2022-12-03T11:22:25.648Z,82.40
2022-12-03T11:27:32.612Z,82.39
2022-12-03T11:33:21.752Z,82.60
2022-12-03T11:38:58.069Z,82.42
2022-12-03T11:44:31.742Z,82.37
2022-12-03T11:49:48.310Z,82.55
2022-12-03T11:55:02.963Z,82.30
2022-12-03T12:00:25.142Z,82.48
2022-12-03T12:05:34.457Z,82.37
2022-12-03T12:10:47.905Z,82.40
2022-12-03T12:15:54.943Z,82.17
2022-12-03T12:21:32.630Z,82.27
2022-12-03T12:26:39.544Z,82.16
2022-12-03T12:31:53.715Z,82.35
2022-12-03T12:37:10.978Z,82.33
2022-12-03T12:42:33.435Z,82.07
2022-12-03T12:47:41.987Z,82.07
2022-12-03T12:52:55.953Z,82.14
2022-12-03T12:58:08.929Z,82.10
2022-12-03T13:03:18.001Z,81.94
2022-12-03T13:09:23.776Z,82.02
2022-12-03T13:14:43.103Z,81.94
2022-12-03T13:20:42.429Z,81.98
2022-12-03T13:26:30.474Z,82.02
2022-12-03T13:31:51.720Z,82.11
2022-12-03T13:36:58.901Z,82.07
2022-12-03T13:42:46.683Z,82.12
2022-12-03T13:47:57.726Z,81.99
2022-12-03T13:53:10.866Z,82.07
2022-12-03T13:58:19.328Z,82.13
2022-12-03T14:03:26.621Z,82.14
2022-12-03T14:08:33.597Z,82.27
2022-12-03T14:13:41.929Z,82.22
2022-12-03T14:18:50.645Z,82.30
2022-12-03T14:24:06.973Z,82.35
2022-12-03T14:29:19.434Z,82.52
2022-12-03T14:34:28.444Z,82.50
2022-12-03T14:39:37.358Z,82.48
2022-12-03T14:44:46.235Z,82.60
2022-12-03T14:49:54.632Z,82.54
2022-12-03T14:55:03.371Z,82.70
2022-12-03T15:00:12.887Z,82.77
2022-12-03T15:05:28.970Z,82.76
2022-12-03T15:10:38.200Z,82.88
2022-12-03T15:15:50.892Z,82.97
2022-12-03T15:21:04.486Z,82.89
2022-12-03T15:26:16.403Z,83.03
2022-12-03T15:31:26.682Z,83.04
2022-12-03T15:36:33.892Z,83.07
2022-12-03T15:41:40.845Z,83.15
2022-12-03T15:46:47.817Z,83.12
2022-12-03T15:51:54.981Z,83.22
2022-12-03T15:57:01.983Z,83.20
2022-12-03T16:02:09.200Z,83.18
2022-12-03T16:07:16.341Z,83.19
2022-12-03T16:12:23.476Z,83.37
2022-12-03T16:17:30.406Z,83.37
2022-12-03T16:22:37.461Z,83.46
2022-12-03T16:27:44.843Z,83.43
2022-12-03T16:32:52.276Z,83.49
2022-12-03T16:37:59.364Z,83.53
2022-12-03T16:43:08.418Z,83.55
2022-12-03T16:48:15.552Z,83.63
2022-12-03T16:53:22.826Z,83.50
2022-12-03T16:58:30.670Z,83.66
2022-12-03T17:03:38.488Z,83.63
2022-12-03T17:08:49.407Z,83.62
2022-12-03T17:13:57.499Z,83.64
2022-12-03T17:19:04.729Z,83.79
2022-12-03T17:24:12.399Z,83.75
2022-12-03T17:29:19.539Z,83.65
2022-12-03T17:34:27.406Z,83.84
2022-12-03T17:39:36.423Z,83.79
2022-12-03T17:44:43.778Z,83.83
2022-12-03T17:49:50.740Z,83.91
2022-12-03T17:55:21.598Z,83.82
2022-12-03T18:00:26.744Z,83.93
2022-12-03T18:05:34.273Z,83.89
2022-12-03T18:10:41.366Z,83.91
2022-12-03T18:15:48.401Z,83.90
2022-12-03T18:20:56.117Z,83.95
2022-12-03T18:26:04.076Z,84.00
2022-12-03T18:31:17.372Z,83.97
2022-12-03T18:36:27.553Z,84.04
2022-12-03T18:41:36.257Z,84.07
2022-12-03T18:46:59.382Z,84.05
2022-12-03T18:52:08.172Z,84.12
2022-12-03T18:57:16.199Z,84.05
2022-12-03T19:03:00.714Z,84.12
2022-12-03T19:07:55.205Z,84.15
2022-12-03T19:13:03.796Z,84.02
2022-12-03T19:18:10.651Z,84.11
2022-12-03T19:23:19.308Z,84.07
2022-12-03T19:28:27.250Z,84.11
2022-12-03T19:33:35.026Z,84.23
2022-12-03T19:38:42.563Z,84.11
2022-12-03T19:43:54.778Z,84.21
2022-12-03T19:49:02.748Z,84.19
2022-12-03T19:54:11.933Z,84.28
2022-12-03T19:59:19.967Z,84.24
2022-12-03T20:04:27.939Z,84.10
2022-12-03T20:09:35.306Z,84.14
2022-12-03T20:14:42.629Z,84.25
2022-12-03T20:19:49.868Z,84.15
2022-12-03T20:24:56.981Z,84.24
2022-12-03T20:30:04.018Z,84.21
2022-12-03T20:35:11.715Z,84.28
2022-12-03T20:40:19.416Z,84.22
2022-12-03T20:45:27.449Z,84.17
2022-12-03T20:50:34.855Z,84.24
2022-12-03T20:55:42.138Z,84.25
2022-12-03T21:00:49.296Z,84.24
2022-12-03T21:06:02.454Z,84.16
2022-12-03T21:11:12.494Z,84.21
2022-12-03T21:16:39.343Z,84.28
2022-12-03T21:21:48.792Z,84.20
2022-12-03T21:26:56.201Z,84.27
2022-12-03T21:32:03.198Z,84.30
2022-12-03T21:37:10.156Z,84.20
2022-12-03T21:42:34.686Z,84.22
2022-12-03T21:47:43.629Z,84.22
2022-12-03T21:52:51.404Z,84.24
2022-12-03T21:58:07.928Z,84.31
2022-12-03T22:03:15.424Z,84.37
2022-12-03T22:08:22.464Z,84.30
2022-12-03T22:13:29.657Z,84.37
2022-12-03T22:18:36.869Z,84.35
2022-12-03T22:23:43.776Z,84.39
2022-12-03T22:28:51.607Z,84.28
2022-12-03T22:33:58.677Z,84.28
2022-12-03T22:39:05.715Z,84.26
2022-12-03T22:44:12.803Z,84.33
2022-12-03T22:49:19.843Z,84.38
2022-12-03T22:54:26.726Z,84.41
2022-12-03T22:59:33.769Z,84.53
2022-12-03T23:04:40.793Z,84.53
2022-12-03T23:09:47.964Z,84.52
2022-12-03T23:14:56.467Z,84.47
2022-12-03T23:20:04.085Z,84.60
2022-12-03T23:25:12.678Z,84.56
2022-12-03T23:30:19.886Z,84.45
2022-12-03T23:35:26.859Z,84.52
2022-12-03T23:40:34.122Z,84.34
2022-12-03T23:45:41.570Z,84.46
2022-12-03T23:50:48.465Z,84.45
2022-12-03T23:55:55.593Z,84.44
